sensor_id;sensor_type;location;lat;lon;timestamp;P1;durP1;ratioP1;P2;durP2;ratioP2
57832;SDS011;43667;53.036;6.740;2023-04-25T00:00:35;22.77;;;5.10;;
57832;SDS011;43667;53.036;6.740;2023-04-25T00:03:00;27.90;;;5.22;;
57832;SDS011;43667;53.036;6.740;2023-04-25T00:05:26;19.45;;;5.20;;
57832;SDS011;43667;53.036;6.740;2023-04-25T00:07:52;20.48;;;4.22;;
57832;SDS011;43667;53.036;6.740;2023-04-25T00:10:18;21.13;;;4.35;;
57832;SDS011;43667;53.036;6.740;2023-04-25T00:12:45;25.08;;;4.78;;
57832;SDS011;43667;53.036;6.740;2023-04-25T00:15:11;21.70;;;4.97;;
57832;SDS011;43667;53.036;6.740;2023-04-25T00:17:37;20.35;;;4.90;;
57832;SDS011;43667;53.036;6.740;2023-04-25T00:20:03;18.77;;;4.50;;
57832;SDS011;43667;53.036;6.740;2023-04-25T00:22:38;24.60;;;5.25;;
57832;SDS011;43667;53.036;6.740;2023-04-25T00:25:05;23.13;;;5.13;;
57832;SDS011;43667;53.036;6.740;2023-04-25T00:27:31;23.85;;;4.63;;
57832;SDS011;43667;53.036;6.740;2023-04-25T00:29:57;19.55;;;5.03;;
57832;SDS011;43667;53.036;6.740;2023-04-25T00:32:23;22.67;;;4.65;;
57832;SDS011;43667;53.036;6.740;2023-04-25T00:34:48;23.00;;;3.92;;
57832;SDS011;43667;53.036;6.740;2023-04-25T00:37:14;19.17;;;4.40;;
57832;SDS011;43667;53.036;6.740;2023-04-25T00:39:39;23.85;;;5.20;;
57832;SDS011;43667;53.036;6.740;2023-04-25T00:42:05;24.27;;;4.82;;
57832;SDS011;43667;53.036;6.740;2023-04-25T00:44:31;29.77;;;4.93;;
57832;SDS011;43667;53.036;6.740;2023-04-25T00:46:57;23.02;;;5.28;;
57832;SDS011;43667;53.036;6.740;2023-04-25T00:49:23;20.30;;;4.10;;
57832;SDS011;43667;53.036;6.740;2023-04-25T00:51:48;30.25;;;5.88;;
57832;SDS011;43667;53.036;6.740;2023-04-25T00:54:14;17.77;;;4.93;;
57832;SDS011;43667;53.036;6.740;2023-04-25T00:56:41;24.67;;;4.45;;
57832;SDS011;43667;53.036;6.740;2023-04-25T00:59:07;26.20;;;4.53;;
57832;SDS011;43667;53.036;6.740;2023-04-25T01:01:34;20.67;;;5.00;;
57832;SDS011;43667;53.036;6.740;2023-04-25T01:04:00;16.65;;;4.13;;
57832;SDS011;43667;53.036;6.740;2023-04-25T01:06:26;23.92;;;4.80;;
57832;SDS011;43667;53.036;6.740;2023-04-25T01:08:52;25.77;;;5.05;;
57832;SDS011;43667;53.036;6.740;2023-04-25T01:11:18;22.10;;;4.25;;
57832;SDS011;43667;53.036;6.740;2023-04-25T01:13:44;23.38;;;4.68;;
57832;SDS011;43667;53.036;6.740;2023-04-25T01:16:10;27.95;;;4.95;;
57832;SDS011;43667;53.036;6.740;2023-04-25T01:18:36;30.63;;;5.53;;
57832;SDS011;43667;53.036;6.740;2023-04-25T01:21:09;21.92;;;4.85;;
57832;SDS011;43667;53.036;6.740;2023-04-25T01:23:35;21.75;;;4.30;;
57832;SDS011;43667;53.036;6.740;2023-04-25T01:26:03;26.88;;;5.30;;
57832;SDS011;43667;53.036;6.740;2023-04-25T01:28:29;23.40;;;4.65;;
57832;SDS011;43667;53.036;6.740;2023-04-25T01:30:55;30.23;;;4.43;;
57832;SDS011;43667;53.036;6.740;2023-04-25T01:33:21;23.48;;;4.20;;
57832;SDS011;43667;53.036;6.740;2023-04-25T01:35:47;19.80;;;4.40;;
57832;SDS011;43667;53.036;6.740;2023-04-25T01:38:14;24.00;;;5.05;;
57832;SDS011;43667;53.036;6.740;2023-04-25T01:40:40;26.33;;;4.25;;
57832;SDS011;43667;53.036;6.740;2023-04-25T01:43:07;21.55;;;4.05;;
57832;SDS011;43667;53.036;6.740;2023-04-25T01:45:40;21.55;;;4.13;;
57832;SDS011;43667;53.036;6.740;2023-04-25T01:48:07;26.15;;;4.75;;
57832;SDS011;43667;53.036;6.740;2023-04-25T01:50:34;21.92;;;4.57;;
57832;SDS011;43667;53.036;6.740;2023-04-25T01:53:00;21.60;;;4.32;;
57832;SDS011;43667;53.036;6.740;2023-04-25T01:55:27;26.15;;;5.53;;
57832;SDS011;43667;53.036;6.740;2023-04-25T01:57:53;26.17;;;4.25;;
57832;SDS011;43667;53.036;6.740;2023-04-25T02:00:18;19.33;;;3.50;;
57832;SDS011;43667;53.036;6.740;2023-04-25T02:02:44;18.85;;;4.07;;
57832;SDS011;43667;53.036;6.740;2023-04-25T02:05:09;18.33;;;4.13;;
57832;SDS011;43667;53.036;6.740;2023-04-25T02:07:35;25.02;;;4.28;;
57832;SDS011;43667;53.036;6.740;2023-04-25T02:10:01;20.20;;;3.92;;
57832;SDS011;43667;53.036;6.740;2023-04-25T02:12:27;20.80;;;3.67;;
57832;SDS011;43667;53.036;6.740;2023-04-25T02:14:53;16.88;;;3.97;;
57832;SDS011;43667;53.036;6.740;2023-04-25T02:17:18;16.52;;;4.10;;
57832;SDS011;43667;53.036;6.740;2023-04-25T02:19:46;19.48;;;3.90;;
57832;SDS011;43667;53.036;6.740;2023-04-25T02:22:11;20.92;;;3.58;;
57832;SDS011;43667;53.036;6.740;2023-04-25T02:24:37;21.70;;;3.72;;
57832;SDS011;43667;53.036;6.740;2023-04-25T02:27:03;23.77;;;3.80;;
57832;SDS011;43667;53.036;6.740;2023-04-25T02:29:29;19.23;;;3.17;;
57832;SDS011;43667;53.036;6.740;2023-04-25T02:31:55;14.02;;;3.15;;
57832;SDS011;43667;53.036;6.740;2023-04-25T02:34:20;17.08;;;3.65;;
57832;SDS011;43667;53.036;6.740;2023-04-25T02:36:47;15.88;;;3.63;;
57832;SDS011;43667;53.036;6.740;2023-04-25T02:39:14;21.30;;;4.43;;
57832;SDS011;43667;53.036;6.740;2023-04-25T02:41:40;15.32;;;2.92;;
57832;SDS011;43667;53.036;6.740;2023-04-25T02:44:05;19.80;;;3.10;;
57832;SDS011;43667;53.036;6.740;2023-04-25T02:46:31;20.20;;;4.20;;
57832;SDS011;43667;53.036;6.740;2023-04-25T02:48:56;14.00;;;3.10;;
57832;SDS011;43667;53.036;6.740;2023-04-25T02:51:22;18.75;;;3.45;;
57832;SDS011;43667;53.036;6.740;2023-04-25T02:53:48;19.83;;;3.17;;
57832;SDS011;43667;53.036;6.740;2023-04-25T02:56:13;16.15;;;3.17;;
57832;SDS011;43667;53.036;6.740;2023-04-25T02:58:39;17.85;;;3.20;;
57832;SDS011;43667;53.036;6.740;2023-04-25T03:01:07;18.85;;;3.88;;
57832;SDS011;43667;53.036;6.740;2023-04-25T03:03:35;17.95;;;3.70;;
57832;SDS011;43667;53.036;6.740;2023-04-25T03:06:01;17.10;;;3.40;;
57832;SDS011;43667;53.036;6.740;2023-04-25T03:08:27;21.90;;;4.32;;
57832;SDS011;43667;53.036;6.740;2023-04-25T03:10:57;18.65;;;3.20;;
57832;SDS011;43667;53.036;6.740;2023-04-25T03:13:23;15.02;;;3.35;;
57832;SDS011;43667;53.036;6.740;2023-04-25T03:15:49;21.70;;;3.47;;
57832;SDS011;43667;53.036;6.740;2023-04-25T03:18:15;17.08;;;3.55;;
57832;SDS011;43667;53.036;6.740;2023-04-25T03:20:40;15.63;;;3.40;;
57832;SDS011;43667;53.036;6.740;2023-04-25T03:23:07;13.73;;;2.92;;
57832;SDS011;43667;53.036;6.740;2023-04-25T03:25:32;15.25;;;2.88;;
57832;SDS011;43667;53.036;6.740;2023-04-25T03:27:58;22.77;;;3.20;;
57832;SDS011;43667;53.036;6.740;2023-04-25T03:30:23;14.65;;;2.85;;
57832;SDS011;43667;53.036;6.740;2023-04-25T03:32:49;18.02;;;3.47;;
57832;SDS011;43667;53.036;6.740;2023-04-25T03:35:15;15.77;;;3.58;;
57832;SDS011;43667;53.036;6.740;2023-04-25T03:37:41;18.45;;;3.00;;
57832;SDS011;43667;53.036;6.740;2023-04-25T03:40:10;18.27;;;3.00;;
57832;SDS011;43667;53.036;6.740;2023-04-25T03:42:36;14.30;;;2.92;;
57832;SDS011;43667;53.036;6.740;2023-04-25T03:45:02;14.55;;;3.20;;
57832;SDS011;43667;53.036;6.740;2023-04-25T03:47:27;17.23;;;3.22;;
57832;SDS011;43667;53.036;6.740;2023-04-25T03:49:53;16.83;;;2.72;;
57832;SDS011;43667;53.036;6.740;2023-04-25T03:52:19;14.80;;;2.70;;
57832;SDS011;43667;53.036;6.740;2023-04-25T03:54:44;16.48;;;3.33;;
57832;SDS011;43667;53.036;6.740;2023-04-25T03:57:10;14.95;;;2.70;;
57832;SDS011;43667;53.036;6.740;2023-04-25T03:59:35;12.90;;;2.92;;
57832;SDS011;43667;53.036;6.740;2023-04-25T04:02:01;14.25;;;3.22;;
57832;SDS011;43667;53.036;6.740;2023-04-25T04:04:27;14.68;;;2.58;;
57832;SDS011;43667;53.036;6.740;2023-04-25T04:06:52;17.58;;;2.40;;
57832;SDS011;43667;53.036;6.740;2023-04-25T04:09:18;16.80;;;3.08;;
57832;SDS011;43667;53.036;6.740;2023-04-25T04:11:44;18.48;;;2.95;;
57832;SDS011;43667;53.036;6.740;2023-04-25T04:14:10;16.35;;;2.70;;
57832;SDS011;43667;53.036;6.740;2023-04-25T04:16:35;13.48;;;2.92;;
57832;SDS011;43667;53.036;6.740;2023-04-25T04:19:02;15.77;;;3.47;;
57832;SDS011;43667;53.036;6.740;2023-04-25T04:21:28;16.45;;;2.42;;
57832;SDS011;43667;53.036;6.740;2023-04-25T04:23:53;17.83;;;2.63;;
57832;SDS011;43667;53.036;6.740;2023-04-25T04:26:20;15.52;;;2.97;;
57832;SDS011;43667;53.036;6.740;2023-04-25T04:28:49;18.92;;;2.78;;
57832;SDS011;43667;53.036;6.740;2023-04-25T04:31:19;14.88;;;3.10;;
57832;SDS011;43667;53.036;6.740;2023-04-25T04:33:46;25.58;;;5.90;;
57832;SDS011;43667;53.036;6.740;2023-04-25T04:36:12;18.10;;;2.95;;
57832;SDS011;43667;53.036;6.740;2023-04-25T04:38:38;16.23;;;2.40;;
57832;SDS011;43667;53.036;6.740;2023-04-25T04:41:03;19.10;;;2.88;;
57832;SDS011;43667;53.036;6.740;2023-04-25T04:43:29;18.48;;;2.75;;
57832;SDS011;43667;53.036;6.740;2023-04-25T04:45:55;13.20;;;2.70;;
57832;SDS011;43667;53.036;6.740;2023-04-25T04:48:21;11.38;;;2.63;;
57832;SDS011;43667;53.036;6.740;2023-04-25T04:50:47;13.65;;;2.38;;
57832;SDS011;43667;53.036;6.740;2023-04-25T04:53:13;15.27;;;2.38;;
57832;SDS011;43667;53.036;6.740;2023-04-25T04:55:38;16.52;;;2.85;;
57832;SDS011;43667;53.036;6.740;2023-04-25T04:58:06;11.95;;;2.33;;
57832;SDS011;43667;53.036;6.740;2023-04-25T05:00:32;18.48;;;2.78;;
57832;SDS011;43667;53.036;6.740;2023-04-25T05:02:58;14.38;;;2.80;;
57832;SDS011;43667;53.036;6.740;2023-04-25T05:05:23;13.77;;;2.03;;
57832;SDS011;43667;53.036;6.740;2023-04-25T05:07:49;12.80;;;2.60;;
57832;SDS011;43667;53.036;6.740;2023-04-25T05:10:16;13.20;;;2.15;;
57832;SDS011;43667;53.036;6.740;2023-04-25T05:12:42;14.57;;;2.72;;
57832;SDS011;43667;53.036;6.740;2023-04-25T05:15:08;18.83;;;3.03;;
57832;SDS011;43667;53.036;6.740;2023-04-25T05:17:34;14.25;;;2.65;;
57832;SDS011;43667;53.036;6.740;2023-04-25T05:20:00;15.68;;;2.70;;
57832;SDS011;43667;53.036;6.740;2023-04-25T05:22:25;13.18;;;2.53;;
57832;SDS011;43667;53.036;6.740;2023-04-25T05:24:51;12.85;;;2.25;;
57832;SDS011;43667;53.036;6.740;2023-04-25T05:27:17;19.58;;;2.20;;
57832;SDS011;43667;53.036;6.740;2023-04-25T05:29:43;13.90;;;2.05;;
57832;SDS011;43667;53.036;6.740;2023-04-25T05:32:09;17.83;;;3.33;;
57832;SDS011;43667;53.036;6.740;2023-04-25T05:34:35;17.35;;;3.25;;
57832;SDS011;43667;53.036;6.740;2023-04-25T05:37:00;13.55;;;2.47;;
57832;SDS011;43667;53.036;6.740;2023-04-25T05:39:26;13.70;;;2.22;;
57832;SDS011;43667;53.036;6.740;2023-04-25T05:41:52;17.50;;;2.38;;
57832;SDS011;43667;53.036;6.740;2023-04-25T05:44:17;12.23;;;2.53;;
57832;SDS011;43667;53.036;6.740;2023-04-25T05:46:43;12.30;;;2.00;;
57832;SDS011;43667;53.036;6.740;2023-04-25T05:49:09;14.02;;;2.33;;
57832;SDS011;43667;53.036;6.740;2023-04-25T05:51:35;10.45;;;2.47;;
57832;SDS011;43667;53.036;6.740;2023-04-25T05:54:00;13.70;;;2.10;;
57832;SDS011;43667;53.036;6.740;2023-04-25T05:56:26;16.05;;;2.47;;
57832;SDS011;43667;53.036;6.740;2023-04-25T05:58:51;19.98;;;2.78;;
57832;SDS011;43667;53.036;6.740;2023-04-25T06:01:17;12.93;;;2.58;;
57832;SDS011;43667;53.036;6.740;2023-04-25T06:03:43;17.98;;;2.50;;
57832;SDS011;43667;53.036;6.740;2023-04-25T06:06:09;16.60;;;2.70;;
57832;SDS011;43667;53.036;6.740;2023-04-25T06:08:34;13.05;;;2.20;;
57832;SDS011;43667;53.036;6.740;2023-04-25T06:11:00;10.75;;;2.42;;
57832;SDS011;43667;53.036;6.740;2023-04-25T06:13:26;15.05;;;2.28;;
57832;SDS011;43667;53.036;6.740;2023-04-25T06:15:51;10.93;;;1.70;;
57832;SDS011;43667;53.036;6.740;2023-04-25T06:18:17;14.38;;;2.38;;
57832;SDS011;43667;53.036;6.740;2023-04-25T06:20:43;14.18;;;2.35;;
57832;SDS011;43667;53.036;6.740;2023-04-25T06:23:08;12.98;;;2.65;;
57832;SDS011;43667;53.036;6.740;2023-04-25T06:25:34;17.80;;;3.58;;
57832;SDS011;43667;53.036;6.740;2023-04-25T06:27:59;12.68;;;2.30;;
57832;SDS011;43667;53.036;6.740;2023-04-25T06:30:25;17.73;;;2.83;;
57832;SDS011;43667;53.036;6.740;2023-04-25T06:32:54;13.18;;;2.50;;
57832;SDS011;43667;53.036;6.740;2023-04-25T06:35:19;11.88;;;2.40;;
57832;SDS011;43667;53.036;6.740;2023-04-25T06:37:45;13.75;;;2.85;;
57832;SDS011;43667;53.036;6.740;2023-04-25T06:40:11;12.70;;;2.13;;
57832;SDS011;43667;53.036;6.740;2023-04-25T06:42:36;14.73;;;2.40;;
57832;SDS011;43667;53.036;6.740;2023-04-25T06:45:02;13.77;;;2.35;;
57832;SDS011;43667;53.036;6.740;2023-04-25T06:47:28;17.98;;;2.20;;
57832;SDS011;43667;53.036;6.740;2023-04-25T06:49:54;18.58;;;2.00;;
57832;SDS011;43667;53.036;6.740;2023-04-25T06:52:20;12.55;;;2.35;;
57832;SDS011;43667;53.036;6.740;2023-04-25T06:54:46;14.40;;;2.45;;
57832;SDS011;43667;53.036;6.740;2023-04-25T06:57:11;9.15;;;1.58;;
57832;SDS011;43667;53.036;6.740;2023-04-25T06:59:37;15.88;;;2.15;;
57832;SDS011;43667;53.036;6.740;2023-04-25T07:02:03;20.35;;;2.30;;
57832;SDS011;43667;53.036;6.740;2023-04-25T07:04:29;9.43;;;1.95;;
57832;SDS011;43667;53.036;6.740;2023-04-25T07:06:55;13.52;;;2.20;;
57832;SDS011;43667;53.036;6.740;2023-04-25T07:09:21;16.85;;;3.03;;
57832;SDS011;43667;53.036;6.740;2023-04-25T07:11:47;12.05;;;2.33;;
57832;SDS011;43667;53.036;6.740;2023-04-25T07:14:12;10.52;;;1.67;;
57832;SDS011;43667;53.036;6.740;2023-04-25T07:16:38;11.07;;;1.90;;
57832;SDS011;43667;53.036;6.740;2023-04-25T07:19:03;12.90;;;2.08;;
57832;SDS011;43667;53.036;6.740;2023-04-25T07:21:29;7.78;;;1.80;;
57832;SDS011;43667;53.036;6.740;2023-04-25T07:23:56;11.23;;;1.38;;
57832;SDS011;43667;53.036;6.740;2023-04-25T07:26:21;11.05;;;1.60;;
57832;SDS011;43667;53.036;6.740;2023-04-25T07:28:47;10.50;;;1.75;;
57832;SDS011;43667;53.036;6.740;2023-04-25T07:31:15;10.05;;;1.48;;
57832;SDS011;43667;53.036;6.740;2023-04-25T07:33:43;10.20;;;1.67;;
57832;SDS011;43667;53.036;6.740;2023-04-25T07:36:10;15.52;;;1.90;;
57832;SDS011;43667;53.036;6.740;2023-04-25T07:38:35;8.90;;;1.55;;
57832;SDS011;43667;53.036;6.740;2023-04-25T07:41:01;10.05;;;1.40;;
57832;SDS011;43667;53.036;6.740;2023-04-25T07:43:27;12.57;;;1.58;;
57832;SDS011;43667;53.036;6.740;2023-04-25T07:45:52;7.85;;;1.35;;
57832;SDS011;43667;53.036;6.740;2023-04-25T07:48:18;11.15;;;1.65;;
57832;SDS011;43667;53.036;6.740;2023-04-25T07:50:44;9.18;;;1.63;;
57832;SDS011;43667;53.036;6.740;2023-04-25T07:53:10;9.65;;;1.85;;
57832;SDS011;43667;53.036;6.740;2023-04-25T07:55:36;12.93;;;1.73;;
57832;SDS011;43667;53.036;6.740;2023-04-25T07:58:08;5.28;;;0.90;;
57832;SDS011;43667;53.036;6.740;2023-04-25T08:00:34;4.95;;;1.00;;
57832;SDS011;43667;53.036;6.740;2023-04-25T08:03:00;5.60;;;1.50;;
57832;SDS011;43667;53.036;6.740;2023-04-25T08:05:26;6.15;;;1.23;;
57832;SDS011;43667;53.036;6.740;2023-04-25T08:07:51;8.05;;;1.50;;
57832;SDS011;43667;53.036;6.740;2023-04-25T08:10:17;9.85;;;1.98;;
57832;SDS011;43667;53.036;6.740;2023-04-25T08:12:43;9.05;;;1.20;;
57832;SDS011;43667;53.036;6.740;2023-04-25T08:15:08;6.65;;;1.27;;
57832;SDS011;43667;53.036;6.740;2023-04-25T08:17:34;10.15;;;1.63;;
57832;SDS011;43667;53.036;6.740;2023-04-25T08:20:00;6.53;;;1.92;;
57832;SDS011;43667;53.036;6.740;2023-04-25T08:22:26;9.13;;;1.60;;
57832;SDS011;43667;53.036;6.740;2023-04-25T08:24:54;8.90;;;1.38;;
57832;SDS011;43667;53.036;6.740;2023-04-25T08:27:19;13.77;;;1.90;;
57832;SDS011;43667;53.036;6.740;2023-04-25T08:29:45;8.57;;;1.48;;
57832;SDS011;43667;53.036;6.740;2023-04-25T08:32:11;7.35;;;1.00;;
57832;SDS011;43667;53.036;6.740;2023-04-25T08:34:36;5.20;;;0.98;;
57832;SDS011;43667;53.036;6.740;2023-04-25T08:37:04;7.57;;;1.08;;
57832;SDS011;43667;53.036;6.740;2023-04-25T08:39:30;6.70;;;1.10;;
57832;SDS011;43667;53.036;6.740;2023-04-25T08:41:56;9.88;;;1.45;;
57832;SDS011;43667;53.036;6.740;2023-04-25T08:44:21;5.88;;;1.17;;
57832;SDS011;43667;53.036;6.740;2023-04-25T08:46:48;4.95;;;1.58;;
57832;SDS011;43667;53.036;6.740;2023-04-25T08:49:17;5.50;;;0.80;;
57832;SDS011;43667;53.036;6.740;2023-04-25T08:51:44;3.60;;;0.38;;
57832;SDS011;43667;53.036;6.740;2023-04-25T08:54:16;3.22;;;0.43;;
57832;SDS011;43667;53.036;6.740;2023-04-25T08:56:45;3.60;;;0.63;;
57832;SDS011;43667;53.036;6.740;2023-04-25T08:59:13;4.22;;;0.73;;
57832;SDS011;43667;53.036;6.740;2023-04-25T09:01:39;6.30;;;0.70;;
57832;SDS011;43667;53.036;6.740;2023-04-25T09:04:05;3.80;;;0.45;;
57832;SDS011;43667;53.036;6.740;2023-04-25T09:06:31;3.20;;;0.50;;
57832;SDS011;43667;53.036;6.740;2023-04-25T09:09:03;4.47;;;0.70;;
57832;SDS011;43667;53.036;6.740;2023-04-25T09:11:31;1.95;;;0.50;;
57832;SDS011;43667;53.036;6.740;2023-04-25T09:14:10;2.83;;;0.75;;
57832;SDS011;43667;53.036;6.740;2023-04-25T09:19:25;3.53;;;0.77;;
57832;SDS011;43667;53.036;6.740;2023-04-25T09:21:59;5.25;;;0.70;;
57832;SDS011;43667;53.036;6.740;2023-04-25T09:24:33;2.83;;;0.63;;
57832;SDS011;43667;53.036;6.740;2023-04-25T09:27:06;1.90;;;0.50;;
57832;SDS011;43667;53.036;6.740;2023-04-25T09:29:34;3.20;;;0.65;;
57832;SDS011;43667;53.036;6.740;2023-04-25T09:32:11;3.72;;;0.90;;
57832;SDS011;43667;53.036;6.740;2023-04-25T09:34:41;5.70;;;1.02;;
57832;SDS011;43667;53.036;6.740;2023-04-25T09:37:08;6.25;;;0.70;;
57832;SDS011;43667;53.036;6.740;2023-04-25T09:39:35;4.30;;;1.33;;
57832;SDS011;43667;53.036;6.740;2023-04-25T09:42:02;7.40;;;1.10;;
57832;SDS011;43667;53.036;6.740;2023-04-25T09:44:29;12.68;;;1.60;;
57832;SDS011;43667;53.036;6.740;2023-04-25T09:46:54;6.75;;;1.10;;
57832;SDS011;43667;53.036;6.740;2023-04-25T09:49:20;7.63;;;2.10;;
57832;SDS011;43667;53.036;6.740;2023-04-25T09:51:57;6.55;;;1.00;;
57832;SDS011;43667;53.036;6.740;2023-04-25T09:54:24;5.85;;;1.05;;
57832;SDS011;43667;53.036;6.740;2023-04-25T09:56:51;5.10;;;1.23;;
57832;SDS011;43667;53.036;6.740;2023-04-25T09:59:21;10.27;;;1.65;;
57832;SDS011;43667;53.036;6.740;2023-04-25T10:01:49;7.25;;;1.20;;
57832;SDS011;43667;53.036;6.740;2023-04-25T10:04:19;8.82;;;1.45;;
57832;SDS011;43667;53.036;6.740;2023-04-25T10:06:52;7.43;;;1.30;;
57832;SDS011;43667;53.036;6.740;2023-04-25T10:09:20;5.45;;;0.90;;
57832;SDS011;43667;53.036;6.740;2023-04-25T10:11:46;4.85;;;0.93;;
57832;SDS011;43667;53.036;6.740;2023-04-25T10:14:15;7.68;;;1.60;;
57832;SDS011;43667;53.036;6.740;2023-04-25T10:16:42;6.57;;;1.17;;
57832;SDS011;43667;53.036;6.740;2023-04-25T10:19:10;7.47;;;1.20;;
57832;SDS011;43667;53.036;6.740;2023-04-25T10:21:40;12.95;;;1.98;;
57832;SDS011;43667;53.036;6.740;2023-04-25T10:24:13;9.80;;;1.40;;
57832;SDS011;43667;53.036;6.740;2023-04-25T10:26:40;7.72;;;1.20;;
57832;SDS011;43667;53.036;6.740;2023-04-25T10:29:06;9.93;;;1.45;;
57832;SDS011;43667;53.036;6.740;2023-04-25T10:31:32;6.78;;;1.38;;
57832;SDS011;43667;53.036;6.740;2023-04-25T10:33:59;6.05;;;1.20;;
57832;SDS011;43667;53.036;6.740;2023-04-25T10:36:25;6.10;;;1.20;;
57832;SDS011;43667;53.036;6.740;2023-04-25T10:38:52;5.60;;;1.10;;
57832;SDS011;43667;53.036;6.740;2023-04-25T10:41:19;8.80;;;1.52;;
57832;SDS011;43667;53.036;6.740;2023-04-25T10:43:46;11.45;;;1.58;;
57832;SDS011;43667;53.036;6.740;2023-04-25T10:46:22;6.82;;;1.95;;
57832;SDS011;43667;53.036;6.740;2023-04-25T10:48:49;5.45;;;0.95;;
57832;SDS011;43667;53.036;6.740;2023-04-25T10:51:23;10.38;;;1.52;;
57832;SDS011;43667;53.036;6.740;2023-04-25T10:53:57;10.77;;;1.40;;
57832;SDS011;43667;53.036;6.740;2023-04-25T10:56:25;10.75;;;1.65;;
57832;SDS011;43667;53.036;6.740;2023-04-25T10:59:02;7.50;;;1.55;;
57832;SDS011;43667;53.036;6.740;2023-04-25T11:01:48;7.10;;;1.42;;
57832;SDS011;43667;53.036;6.740;2023-04-25T11:09:39;6.25;;;1.70;;
57832;SDS011;43667;53.036;6.740;2023-04-25T11:12:07;8.95;;;1.33;;
57832;SDS011;43667;53.036;6.740;2023-04-25T11:14:35;10.10;;;1.30;;
57832;SDS011;43667;53.036;6.740;2023-04-25T11:17:01;8.75;;;1.33;;
57832;SDS011;43667;53.036;6.740;2023-04-25T11:19:30;8.02;;;1.23;;
57832;SDS011;43667;53.036;6.740;2023-04-25T11:21:57;7.18;;;1.58;;
57832;SDS011;43667;53.036;6.740;2023-04-25T11:24:27;8.48;;;1.55;;
57832;SDS011;43667;53.036;6.740;2023-04-25T11:27:00;9.60;;;1.95;;
57832;SDS011;43667;53.036;6.740;2023-04-25T11:29:29;8.27;;;1.35;;
57832;SDS011;43667;53.036;6.740;2023-04-25T11:31:56;9.05;;;1.50;;
57832;SDS011;43667;53.036;6.740;2023-04-25T11:34:26;10.85;;;1.30;;
57832;SDS011;43667;53.036;6.740;2023-04-25T11:36:53;8.05;;;1.40;;
57832;SDS011;43667;53.036;6.740;2023-04-25T11:39:19;7.15;;;1.38;;
57832;SDS011;43667;53.036;6.740;2023-04-25T11:41:46;8.40;;;1.67;;
57832;SDS011;43667;53.036;6.740;2023-04-25T11:44:12;8.32;;;1.67;;
57832;SDS011;43667;53.036;6.740;2023-04-25T11:46:40;8.48;;;1.73;;
57832;SDS011;43667;53.036;6.740;2023-04-25T11:49:07;9.93;;;1.48;;
57832;SDS011;43667;53.036;6.740;2023-04-25T11:51:43;6.65;;;1.27;;
57832;SDS011;43667;53.036;6.740;2023-04-25T11:54:12;9.02;;;1.45;;
57832;SDS011;43667;53.036;6.740;2023-04-25T11:56:45;7.43;;;1.98;;
57832;SDS011;43667;53.036;6.740;2023-04-25T11:59:11;5.23;;;1.20;;
57832;SDS011;43667;53.036;6.740;2023-04-25T12:01:38;9.57;;;1.17;;
57832;SDS011;43667;53.036;6.740;2023-04-25T12:06:37;8.27;;;1.27;;
57832;SDS011;43667;53.036;6.740;2023-04-25T12:09:07;11.32;;;1.70;;
57832;SDS011;43667;53.036;6.740;2023-04-25T12:11:55;5.82;;;0.98;;
57832;SDS011;43667;53.036;6.740;2023-04-25T12:14:27;6.70;;;1.65;;
57832;SDS011;43667;53.036;6.740;2023-04-25T12:16:55;6.68;;;1.10;;
57832;SDS011;43667;53.036;6.740;2023-04-25T12:19:22;5.93;;;0.93;;
57832;SDS011;43667;53.036;6.740;2023-04-25T12:21:49;5.25;;;1.00;;
57832;SDS011;43667;53.036;6.740;2023-04-25T12:24:16;4.90;;;1.10;;
57832;SDS011;43667;53.036;6.740;2023-04-25T12:29:33;7.05;;;1.45;;
57832;SDS011;43667;53.036;6.740;2023-04-25T12:31:59;9.32;;;1.40;;
57832;SDS011;43667;53.036;6.740;2023-04-25T12:34:26;6.25;;;1.23;;
57832;SDS011;43667;53.036;6.740;2023-04-25T12:36:52;4.57;;;1.10;;
57832;SDS011;43667;53.036;6.740;2023-04-25T12:39:22;6.65;;;1.20;;
57832;SDS011;43667;53.036;6.740;2023-04-25T12:41:49;7.47;;;1.30;;
57832;SDS011;43667;53.036;6.740;2023-04-25T12:44:15;7.05;;;1.67;;
57832;SDS011;43667;53.036;6.740;2023-04-25T12:46:42;9.73;;;1.52;;
57832;SDS011;43667;53.036;6.740;2023-04-25T12:49:07;4.85;;;1.42;;
57832;SDS011;43667;53.036;6.740;2023-04-25T12:51:34;7.32;;;2.00;;
57832;SDS011;43667;53.036;6.740;2023-04-25T12:54:01;8.15;;;1.45;;
57832;SDS011;43667;53.036;6.740;2023-04-25T12:56:27;9.13;;;1.67;;
57832;SDS011;43667;53.036;6.740;2023-04-25T12:58:54;8.48;;;1.40;;
57832;SDS011;43667;53.036;6.740;2023-04-25T13:01:20;8.63;;;1.10;;
57832;SDS011;43667;53.036;6.740;2023-04-25T13:03:46;6.30;;;1.13;;
57832;SDS011;43667;53.036;6.740;2023-04-25T13:06:13;4.35;;;1.35;;
57832;SDS011;43667;53.036;6.740;2023-04-25T13:08:38;5.78;;;1.35;;
57832;SDS011;43667;53.036;6.740;2023-04-25T13:11:04;7.70;;;1.20;;
57832;SDS011;43667;53.036;6.740;2023-04-25T13:13:30;9.45;;;1.75;;
57832;SDS011;43667;53.036;6.740;2023-04-25T13:15:56;8.93;;;1.10;;
57832;SDS011;43667;53.036;6.740;2023-04-25T13:18:22;7.40;;;1.00;;
57832;SDS011;43667;53.036;6.740;2023-04-25T13:20:54;6.43;;;1.13;;
57832;SDS011;43667;53.036;6.740;2023-04-25T13:23:20;8.80;;;1.55;;
57832;SDS011;43667;53.036;6.740;2023-04-25T13:25:46;6.25;;;1.08;;
57832;SDS011;43667;53.036;6.740;2023-04-25T13:28:12;6.95;;;1.15;;
57832;SDS011;43667;53.036;6.740;2023-04-25T13:30:38;6.32;;;0.95;;
57832;SDS011;43667;53.036;6.740;2023-04-25T13:33:04;8.43;;;1.20;;
57832;SDS011;43667;53.036;6.740;2023-04-25T13:35:31;8.13;;;1.15;;
57832;SDS011;43667;53.036;6.740;2023-04-25T13:37:58;6.38;;;1.17;;
57832;SDS011;43667;53.036;6.740;2023-04-25T13:40:24;8.93;;;1.00;;
57832;SDS011;43667;53.036;6.740;2023-04-25T13:42:51;8.88;;;1.48;;
57832;SDS011;43667;53.036;6.740;2023-04-25T13:45:17;8.32;;;1.80;;
57832;SDS011;43667;53.036;6.740;2023-04-25T13:47:42;7.43;;;1.55;;
57832;SDS011;43667;53.036;6.740;2023-04-25T13:50:08;13.25;;;1.40;;
57832;SDS011;43667;53.036;6.740;2023-04-25T13:52:34;8.27;;;1.65;;
57832;SDS011;43667;53.036;6.740;2023-04-25T13:55:00;9.82;;;1.40;;
57832;SDS011;43667;53.036;6.740;2023-04-25T13:57:28;8.52;;;2.42;;
57832;SDS011;43667;53.036;6.740;2023-04-25T13:59:57;10.57;;;1.70;;
57832;SDS011;43667;53.036;6.740;2023-04-25T14:02:22;9.40;;;1.73;;
57832;SDS011;43667;53.036;6.740;2023-04-25T14:04:48;6.80;;;1.45;;
57832;SDS011;43667;53.036;6.740;2023-04-25T14:07:14;6.30;;;1.15;;
57832;SDS011;43667;53.036;6.740;2023-04-25T14:09:41;7.53;;;1.58;;
57832;SDS011;43667;53.036;6.740;2023-04-25T14:12:07;9.07;;;1.50;;
57832;SDS011;43667;53.036;6.740;2023-04-25T14:14:32;8.93;;;1.13;;
57832;SDS011;43667;53.036;6.740;2023-04-25T14:16:58;5.10;;;1.25;;
57832;SDS011;43667;53.036;6.740;2023-04-25T14:19:24;7.57;;;1.13;;
57832;SDS011;43667;53.036;6.740;2023-04-25T14:21:49;4.80;;;1.10;;
57832;SDS011;43667;53.036;6.740;2023-04-25T14:24:15;4.95;;;0.98;;
57832;SDS011;43667;53.036;6.740;2023-04-25T14:26:41;5.43;;;1.08;;
57832;SDS011;43667;53.036;6.740;2023-04-25T14:29:07;7.50;;;1.70;;
57832;SDS011;43667;53.036;6.740;2023-04-25T14:31:34;8.07;;;1.10;;
57832;SDS011;43667;53.036;6.740;2023-04-25T14:34:00;5.35;;;0.95;;
57832;SDS011;43667;53.036;6.740;2023-04-25T14:36:30;10.98;;;1.52;;
57832;SDS011;43667;53.036;6.740;2023-04-25T14:38:56;5.28;;;1.42;;
57832;SDS011;43667;53.036;6.740;2023-04-25T14:41:22;6.72;;;0.98;;
57832;SDS011;43667;53.036;6.740;2023-04-25T14:43:48;5.43;;;1.52;;
57832;SDS011;43667;53.036;6.740;2023-04-25T14:46:13;6.53;;;1.30;;
57832;SDS011;43667;53.036;6.740;2023-04-25T14:48:39;7.90;;;1.20;;
57832;SDS011;43667;53.036;6.740;2023-04-25T14:51:05;6.43;;;1.48;;